Time;durP1;ratioP1;P1;durP2;ratioP2;P2;SDS_P1;SDS_P2;PMS_P1;PMS_P2;Temp;Humidity;BMP_temperature;BMP_pressure;BME280_temperature;BME280_humidity;BME280_pressure;Samples;Min_cycle;Max_cycle;Signal;HPM_P1;HPM_P2
2021/11/19 00:18:24;;;;;;;10.30;9.35;;;;;;;;;;4849936;28;20279;-62
2021/11/19 00:20:50;;;;;;;10.43;9.45;;;;;;;;;;4227582;33;20094;-62
2021/11/19 00:23:17;;;;;;;12.07;9.68;;;;;;;;;;4221137;33;20473;-71
2021/11/19 00:25:42;;;;;;;13.75;10.93;;;;;;;;;;4213800;34;20445;-71
2021/11/19 00:28:09;;;;;;;10.82;9.82;;;;;;;;;;4218112;33;20134;-71
2021/11/19 00:30:35;;;;;;;9.63;8.70;;;;;;;;;;4204613;34;20430;-71
2021/11/19 00:33:02;;;;;;;12.63;10.98;;;;;;;;;;4191415;34;20212;-72
2021/11/19 00:35:28;;;;;;;11.30;10.20;;;;;;;;;;4204059;34;20109;-72
2021/11/19 00:37:55;;;;;;;11.50;10.30;;;;;;;;;;4210475;34;20279;-72
2021/11/19 00:40:28;;;;;;;13.23;10.88;;;;;;;;;;4217897;34;20112;-62
2021/11/19 00:42:54;;;;;;;11.90;10.57;;;;;;;;;;4217942;34;20573;-63
2021/11/19 00:45:23;;;;;;;11.68;10.48;;;;;;;;;;4217838;34;20220;-62
2021/11/19 00:47:53;;;;;;;10.70;9.60;;;;;;;;;;4217807;34;20105;-62
2021/11/19 00:50:19;;;;;;;10.85;9.70;;;;;;;;;;4217379;33;20148;-62
2021/11/19 00:52:45;;;;;;;10.82;9.82;;;;;;;;;;4217886;34;20136;-63
2021/11/19 00:55:11;;;;;;;11.48;10.27;;;;;;;;;;4210199;33;20240;-62
2021/11/19 00:57:37;;;;;;;11.30;10.20;;;;;;;;;;4205953;34;20564;-62
2021/11/19 01:00:06;;;;;;;10.80;9.70;;;;;;;;;;4205958;34;20217;-62
2021/11/19 01:02:32;;;;;;;10.43;9.52;;;;;;;;;;4206003;34;20114;-62
2021/11/19 01:04:58;;;;;;;10.73;9.65;;;;;;;;;;4205823;34;20137;-62
2021/11/19 01:07:24;;;;;;;11.12;9.23;;;;;;;;;;4205793;34;20135;-63
2021/11/19 01:09:52;;;;;;;10.70;9.70;;;;;;;;;;4205927;34;20105;-62
2021/11/19 01:12:22;;;;;;;10.50;9.40;;;;;;;;;;4205940;34;20621;-62
2021/11/19 01:14:52;;;;;;;12.07;10.95;;;;;;;;;;4193146;34;20388;-63
2021/11/19 01:17:22;;;;;;;12.63;11.32;;;;;;;;;;4206062;34;20733;-63
2021/11/19 01:20:08;;;;;;;12.43;11.23;;;;;;;;;;4205990;34;20097;-62
2021/11/19 01:22:35;;;;;;;11.45;10.32;;;;;;;;;;4206092;34;20093;-61
2021/11/19 01:25:01;;;;;;;12.43;11.12;;;;;;;;;;4205941;34;20135;-63
2021/11/19 01:27:27;;;;;;;12.82;11.70;;;;;;;;;;4206107;34;20566;-62
2021/11/19 01:29:53;;;;;;;12.15;11.05;;;;;;;;;;4205693;34;20104;-63
2021/11/19 01:32:21;;;;;;;12.27;10.65;;;;;;;;;;4205844;34;20110;-62
2021/11/19 01:34:48;;;;;;;11.05;10.05;;;;;;;;;;4205739;34;20202;-62
2021/11/19 01:37:14;;;;;;;12.35;11.05;;;;;;;;;;4205937;34;20213;-62
2021/11/19 01:39:42;;;;;;;11.68;10.52;;;;;;;;;;4206090;34;20128;-62
2021/11/19 01:42:12;;;;;;;11.55;10.45;;;;;;;;;;4205591;34;20109;-62
2021/11/19 01:44:42;;;;;;;11.10;10.10;;;;;;;;;;4205561;34;20213;-62
2021/11/19 01:47:11;;;;;;;12.27;9.70;;;;;;;;;;4205563;34;20672;-62
2021/11/19 01:49:37;;;;;;;11.52;10.27;;;;;;;;;;4205789;34;20485;-63
2021/11/19 01:52:05;;;;;;;8.48;7.68;;;;;;;;;;4205527;34;20172;-62
2021/11/19 01:54:37;;;;;;;9.73;8.80;;;;;;;;;;4196107;34;20233;-62
2021/11/19 01:57:14;;;;;;;10.63;9.63;;;;;;;;;;4206875;34;20181;-63
2021/11/19 01:59:51;;;;;;;10.63;9.52;;;;;;;;;;4206878;34;20524;-62
2021/11/19 02:02:26;;;;;;;9.18;7.30;;;;;;;;;;4219320;34;20097;-62
2021/11/19 02:04:57;;;;;;;10.48;9.48;;;;;;;;;;4219322;33;20117;-62
2021/11/19 02:07:27;;;;;;;10.05;8.25;;;;;;;;;;4219248;34;20254;-62
2021/11/19 02:10:11;;;;;;;11.90;10.68;;;;;;;;;;4219309;33;20128;-62
2021/11/19 02:12:54;;;;;;;11.00;9.57;;;;;;;;;;4219251;34;20085;-62
2021/11/19 02:15:24;;;;;;;11.32;9.70;;;;;;;;;;4219236;33;20121;-63
2021/11/19 02:17:52;;;;;;;12.30;9.90;;;;;;;;;;4195293;34;20127;-62
2021/11/19 02:20:37;;;;;;;13.20;9.98;;;;;;;;;;4218996;33;20132;-62
2021/11/19 02:23:17;;;;;;;13.13;11.60;;;;;;;;;;4208046;34;20109;-62
2021/11/19 02:25:55;;;;;;;11.98;10.77;;;;;;;;;;4195250;34;20185;-63
2021/11/19 02:28:24;;;;;;;12.25;10.95;;;;;;;;;;4195515;34;20274;-62
2021/11/19 02:30:58;;;;;;;13.18;11.77;;;;;;;;;;4219064;34;20517;-62
2021/11/19 02:33:27;;;;;;;13.65;11.73;;;;;;;;;;4219061;34;20113;-62
2021/11/19 02:36:42;;;;;;;14.52;13.02;;;;;;;;;;4206230;34;20535;-63
2021/11/19 02:39:28;;;;;;;;;;;;;;;;;;;;;
2021/11/19 02:42:19;;;;;;;13.40;12.00;;;;;;;;;;4207010;34;20137;-61
2021/11/19 02:44:45;;;;;;;17.17;12.50;;;;;;;;;;4210784;34;20182;-61
2021/11/19 02:47:14;;;;;;;14.30;12.82;;;;;;;;;;4194288;34;20506;-63
2021/11/19 02:49:40;;;;;;;13.65;11.90;;;;;;;;;;4219077;34;20105;-63
2021/11/19 02:52:08;;;;;;;14.87;12.15;;;;;;;;;;4218891;34;20104;-64
2021/11/19 02:54:34;;;;;;;13.43;11.80;;;;;;;;;;4219139;34;20525;-63
2021/11/19 02:57:00;;;;;;;15.73;12.55;;;;;;;;;;4218910;34;20123;-62
2021/11/19 02:59:27;;;;;;;14.35;12.40;;;;;;;;;;4218914;34;20180;-63
2021/11/19 03:01:57;;;;;;;14.45;12.35;;;;;;;;;;4218809;34;20140;-63
2021/11/19 03:04:30;;;;;;;14.43;12.37;;;;;;;;;;4219153;34;20712;-64
2021/11/19 03:06:56;;;;;;;11.07;9.77;;;;;;;;;;4218823;34;20189;-64
2021/11/19 03:09:37;;;;;;;15.57;11.98;;;;;;;;;;4219109;34;20104;-62
2021/11/19 03:12:03;;;;;;;14.10;12.60;;;;;;;;;;4218693;34;20105;-67
2021/11/19 03:14:29;;;;;;;15.90;14.13;;;;;;;;;;4218612;34;20197;-63
2021/11/19 03:16:55;;;;;;;14.30;11.85;;;;;;;;;;4218535;34;20098;-62
2021/11/19 03:19:22;;;;;;;16.48;13.77;;;;;;;;;;4218312;34;20128;-63
2021/11/19 03:21:48;;;;;;;19.02;14.48;;;;;;;;;;4218581;34;20105;-64
2021/11/19 03:24:14;;;;;;;17.90;13.50;;;;;;;;;;4218676;34;20181;-63
2021/11/19 03:26:40;;;;;;;15.68;14.00;;;;;;;;;;4218836;34;20197;-64
2021/11/19 03:29:07;;;;;;;17.60;12.80;;;;;;;;;;4218843;34;20101;-62
2021/11/19 03:31:33;;;;;;;16.33;13.25;;;;;;;;;;4218645;34;20219;-65
2021/11/19 03:33:59;;;;;;;17.75;14.50;;;;;;;;;;4218524;34;20109;-66
2021/11/19 03:36:25;;;;;;;16.10;12.70;;;;;;;;;;4205621;34;20125;-68
2021/11/19 03:38:53;;;;;;;18.35;13.57;;;;;;;;;;4218467;34;20117;-63
2021/11/19 03:41:22;;;;;;;18.50;12.88;;;;;;;;;;4218819;34;20180;-64
2021/11/19 03:44:18;;;;;;;15.52;12.25;;;;;;;;;;4218527;34;20150;-65
2021/11/19 03:46:50;;;;;;;15.52;13.25;;;;;;;;;;4216236;34;20115;-67
2021/11/19 03:49:17;;;;;;;16.23;13.98;;;;;;;;;;4218763;34;20205;-67
2021/11/19 03:51:46;;;;;;;16.52;12.10;;;;;;;;;;4218675;34;20082;-64
2021/11/19 03:54:12;;;;;;;15.27;12.85;;;;;;;;;;4218287;34;20113;-63
2021/11/19 03:56:38;;;;;;;14.68;13.07;;;;;;;;;;4218429;34;20208;-65
2021/11/19 03:59:05;;;;;;;19.75;12.70;;;;;;;;;;4218239;34;20110;-65
2021/11/19 04:01:33;;;;;;;19.00;13.48;;;;;;;;;;4205415;34;20113;-63
2021/11/19 04:04:01;;;;;;;17.33;13.95;;;;;;;;;;4194081;34;20120;-65
2021/11/19 04:06:27;;;;;;;14.70;13.10;;;;;;;;;;4218092;34;20094;-64
2021/11/19 04:08:53;;;;;;;15.18;13.25;;;;;;;;;;4205405;34;20200;-65
2021/11/19 04:11:19;;;;;;;14.52;12.88;;;;;;;;;;4218535;34;20618;-64
2021/11/19 04:13:45;;;;;;;14.43;12.50;;;;;;;;;;4205377;34;20140;-65
2021/11/19 04:16:20;;;;;;;13.98;12.32;;;;;;;;;;4218194;34;20102;-65
2021/11/19 04:18:47;;;;;;;13.05;11.02;;;;;;;;;;4217977;34;20118;-65
2021/11/19 04:21:13;;;;;;;12.37;9.85;;;;;;;;;;4218054;34;20106;-66
2021/11/19 04:23:39;;;;;;;14.38;11.00;;;;;;;;;;4217934;34;20121;-66
2021/11/19 04:26:06;;;;;;;16.25;12.50;;;;;;;;;;4218100;34;20211;-65
2021/11/19 04:28:32;;;;;;;14.65;11.12;;;;;;;;;;4218039;34;20117;-66
2021/11/19 04:30:59;;;;;;;16.23;11.38;;;;;;;;;;4218810;34;20097;-65
2021/11/19 04:33:25;;;;;;;17.00;10.68;;;;;;;;;;4220293;34;20450;-66
2021/11/19 04:35:53;;;;;;;10.55;9.50;;;;;;;;;;4215365;34;20137;-66
2021/11/19 04:38:21;;;;;;;19.23;10.88;;;;;;;;;;4218810;33;20121;-65
2021/11/19 04:40:47;;;;;;;12.68;8.85;;;;;;;;;;4206306;34;20090;-67
2021/11/19 04:43:13;;;;;;;13.50;10.73;;;;;;;;;;4219774;34;20184;-65
2021/11/19 04:45:39;;;;;;;12.73;10.73;;;;;;;;;;4217076;34;20111;-66
2021/11/19 04:48:05;;;;;;;12.07;10.45;;;;;;;;;;4219634;33;20212;-66
2021/11/19 04:50:34;;;;;;;11.43;10.00;;;;;;;;;;4206315;34;20101;-67
2021/11/19 04:53:00;;;;;;;11.35;10.13;;;;;;;;;;4206685;33;20125;-67
2021/11/19 04:55:27;;;;;;;12.45;10.55;;;;;;;;;;4219634;34;20529;-66
2021/11/19 04:57:53;;;;;;;12.73;11.43;;;;;;;;;;4219567;34;20117;-63
2021/11/19 05:00:25;;;;;;;11.70;10.45;;;;;;;;;;4219527;33;20123;-64
2021/11/19 05:02:51;;;;;;;12.65;10.35;;;;;;;;;;4219725;34;20488;-65
2021/11/19 05:05:18;;;;;;;13.00;9.95;;;;;;;;;;4206635;34;20109;-64
2021/11/19 05:07:45;;;;;;;11.55;9.48;;;;;;;;;;4219667;34;20114;-66
2021/11/19 05:10:10;;;;;;;15.60;11.12;;;;;;;;;;4219495;33;20100;-65
2021/11/19 05:12:39;;;;;;;11.95;10.70;;;;;;;;;;4219582;34;20148;-66
2021/11/19 05:15:06;;;;;;;11.05;9.95;;;;;;;;;;4219454;33;20125;-65
2021/11/19 05:17:32;;;;;;;12.07;9.38;;;;;;;;;;4219551;34;20453;-63
2021/11/19 05:19:58;;;;;;;14.23;10.18;;;;;;;;;;4206291;34;20111;-65
2021/11/19 05:22:24;;;;;;;12.93;9.35;;;;;;;;;;4219337;34;20123;-67
2021/11/19 05:24:50;;;;;;;14.85;9.85;;;;;;;;;;4219366;34;20537;-66
2021/11/19 05:27:17;;;;;;;16.15;9.35;;;;;;;;;;4206638;34;20121;-70
2021/11/19 05:29:43;;;;;;;10.45;8.77;;;;;;;;;;4219331;34;20262;-70
2021/11/19 05:32:09;;;;;;;12.02;8.52;;;;;;;;;;4218782;34;20228;-69
2021/11/19 05:34:37;;;;;;;10.55;9.23;;;;;;;;;;4219599;34;20086;-69
2021/11/19 05:37:03;;;;;;;11.32;9.07;;;;;;;;;;4206582;34;20204;-66
2021/11/19 05:39:29;;;;;;;12.50;9.10;;;;;;;;;;4219415;34;20541;-67
2021/11/19 05:41:55;;;;;;;11.98;9.57;;;;;;;;;;4218206;34;20120;-68
2021/11/19 05:44:21;;;;;;;10.55;8.77;;;;;;;;;;4217238;34;20124;-68
2021/11/19 05:46:47;;;;;;;15.20;8.63;;;;;;;;;;4217132;34;20295;-68
2021/11/19 05:49:16;;;;;;;11.93;7.72;;;;;;;;;;4217297;34;20143;-68
2021/11/19 05:51:42;;;;;;;13.10;9.23;;;;;;;;;;4217138;34;20112;-68
2021/11/19 05:54:09;;;;;;;10.05;8.23;;;;;;;;;;4217012;34;20214;-65
2021/11/19 05:56:36;;;;;;;11.82;8.85;;;;;;;;;;4217534;34;20480;-67
2021/11/19 05:59:01;;;;;;;12.50;9.60;;;;;;;;;;4219073;34;20108;-67
2021/11/19 06:01:27;;;;;;;12.20;8.90;;;;;;;;;;4219306;34;20141;-67
2021/11/19 06:03:53;;;;;;;10.50;9.27;;;;;;;;;;4219272;34;20145;-67
2021/11/19 06:06:20;;;;;;;10.57;9.35;;;;;;;;;;4219073;34;20162;-68
2021/11/19 06:08:46;;;;;;;12.80;9.00;;;;;;;;;;4195130;34;20183;-68
2021/11/19 06:11:23;;;;;;;12.63;9.20;;;;;;;;;;4219008;34;20136;-68
2021/11/19 06:13:53;;;;;;;11.55;10.35;;;;;;;;;;4206932;34;20101;-68
2021/11/19 06:16:25;;;;;;;16.17;9.30;;;;;;;;;;4195125;34;20105;-68
2021/11/19 06:18:56;;;;;;;10.38;8.85;;;;;;;;;;4206335;34;20101;-69
2021/11/19 06:21:24;;;;;;;13.32;9.63;;;;;;;;;;4195026;34;20208;-67
2021/11/19 06:23:52;;;;;;;10.55;9.40;;;;;;;;;;4194792;34;20123;-67
2021/11/19 06:26:19;;;;;;;12.07;10.10;;;;;;;;;;4206370;34;20202;-68
2021/11/19 06:28:47;;;;;;;13.52;9.45;;;;;;;;;;4206223;34;20120;-68
2021/11/19 06:31:19;;;;;;;13.02;10.50;;;;;;;;;;4219162;34;20192;-67
2021/11/19 06:33:45;;;;;;;14.07;10.02;;;;;;;;;;4219018;34;20123;-67
2021/11/19 06:36:11;;;;;;;10.80;9.63;;;;;;;;;;4206025;34;20108;-67
2021/11/19 06:38:37;;;;;;;12.48;9.55;;;;;;;;;;4206087;34;20120;-67
2021/11/19 06:41:03;;;;;;;11.48;10.13;;;;;;;;;;4206049;34;20540;-67
2021/11/19 06:43:29;;;;;;;12.63;9.77;;;;;;;;;;4219043;34;20120;-67
2021/11/19 06:45:55;;;;;;;17.27;12.63;;;;;;;;;;4218599;34;20625;-67
2021/11/19 06:48:21;;;;;;;11.68;10.40;;;;;;;;;;4205973;34;20109;-67
2021/11/19 06:50:47;;;;;;;11.85;10.35;;;;;;;;;;4218731;34;20498;-67
2021/11/19 06:53:13;;;;;;;12.60;11.05;;;;;;;;;;4205186;34;20530;-67
2021/11/19 06:55:39;;;;;;;16.50;11.60;;;;;;;;;;4218373;34;20093;-67
2021/11/19 06:58:06;;;;;;;11.05;9.95;;;;;;;;;;4218561;34;20185;-67
2021/11/19 07:00:34;;;;;;;12.40;10.13;;;;;;;;;;4218674;34;20449;-67
2021/11/19 07:03:00;;;;;;;12.05;10.85;;;;;;;;;;4218646;34;20135;-67
2021/11/19 07:05:26;;;;;;;14.57;13.10;;;;;;;;;;4218721;34;20133;-67
2021/11/19 07:07:52;;;;;;;14.45;11.63;;;;;;;;;;4218776;34;20135;-67
2021/11/19 07:10:19;;;;;;;13.18;11.82;;;;;;;;;;4218808;34;20116;-68
2021/11/19 07:12:45;;;;;;;13.85;11.52;;;;;;;;;;4218757;34;20113;-68
2021/11/19 07:15:12;;;;;;;14.40;12.60;;;;;;;;;;4218726;34;20111;-68
2021/11/19 07:17:38;;;;;;;15.25;12.70;;;;;;;;;;4218749;34;20483;-68
2021/11/19 07:20:06;;;;;;;14.68;12.20;;;;;;;;;;4218472;34;20094;-67
2021/11/19 07:22:32;;;;;;;10.88;9.43;;;;;;;;;;4218733;34;20465;-67
2021/11/19 07:24:58;;;;;;;12.55;11.25;;;;;;;;;;4218329;34;20116;-68
2021/11/19 07:27:24;;;;;;;12.52;10.23;;;;;;;;;;4218382;34;20469;-68
2021/11/19 07:29:50;;;;;;;13.20;11.80;;;;;;;;;;4218622;34;20118;-69
2021/11/19 07:32:16;;;;;;;14.60;12.00;;;;;;;;;;4218419;34;20121;-67
2021/11/19 07:34:43;;;;;;;13.77;11.00;;;;;;;;;;4218408;34;20201;-67
2021/11/19 07:37:10;;;;;;;12.48;11.20;;;;;;;;;;4205553;34;20525;-67
2021/11/19 07:39:36;;;;;;;11.65;10.48;;;;;;;;;;4218361;34;20108;-67
2021/11/19 07:42:01;;;;;;;10.45;8.07;;;;;;;;;;4218200;34;20220;-68
2021/11/19 07:44:27;;;;;;;13.32;11.57;;;;;;;;;;4218474;34;20488;-67
2021/11/19 07:46:53;;;;;;;15.65;10.38;;;;;;;;;;4218143;34;20201;-67
2021/11/19 07:49:19;;;;;;;13.07;11.25;;;;;;;;;;4218577;34;20133;-67
2021/11/19 07:51:49;;;;;;;13.43;11.85;;;;;;;;;;4218440;34;20113;-67
2021/11/19 07:54:15;;;;;;;13.77;11.60;;;;;;;;;;4217209;34;20108;-66
2021/11/19 07:56:41;;;;;;;14.25;12.75;;;;;;;;;;4205237;34;20184;-68
2021/11/19 07:59:27;;;;;;;16.15;11.52;;;;;;;;;;4218398;34;20113;-68
2021/11/19 08:01:56;;;;;;;15.60;12.70;;;;;;;;;;4206269;34;20117;-68
2021/11/19 08:04:22;;;;;;;15.50;12.15;;;;;;;;;;4205449;34;20106;-68
2021/11/19 08:06:48;;;;;;;16.65;12.05;;;;;;;;;;4205196;34;20112;-67
2021/11/19 08:09:14;;;;;;;14.23;12.73;;;;;;;;;;4205560;34;20113;-68
2021/11/19 08:11:40;;;;;;;16.70;14.00;;;;;;;;;;4218064;34;20535;-68
2021/11/19 08:14:06;;;;;;;16.15;14.25;;;;;;;;;;4218344;33;20112;-69
2021/11/19 08:16:55;;;;;;;19.42;14.73;;;;;;;;;;4204984;34;20216;-68
2021/11/19 08:19:37;;;;;;;17.67;13.32;;;;;;;;;;4207059;34;20090;-67
2021/11/19 08:22:03;;;;;;;16.48;13.40;;;;;;;;;;4205835;34;20096;-66
2021/11/19 08:24:29;;;;;;;16.55;14.25;;;;;;;;;;4205124;34;20101;-67
2021/11/19 08:27:03;;;;;;;15.85;11.30;;;;;;;;;;4217751;34;20128;-67
2021/11/19 08:29:31;;;;;;;15.85;13.93;;;;;;;;;;4217887;34;20132;-67
2021/11/19 08:31:58;;;;;;;17.62;13.90;;;;;;;;;;4205112;34;20113;-67
2021/11/19 08:34:24;;;;;;;16.33;14.02;;;;;;;;;;4217868;34;20224;-67
2021/11/19 08:36:50;;;;;;;17.27;13.65;;;;;;;;;;4217902;34;20761;-65
2021/11/19 08:39:18;;;;;;;19.12;15.45;;;;;;;;;;4217977;34;20140;-67
2021/11/19 08:41:44;;;;;;;17.25;14.45;;;;;;;;;;4217740;34;20112;-67
2021/11/19 08:44:10;;;;;;;17.00;14.27;;;;;;;;;;4217633;34;20117;-65
2021/11/19 08:46:42;;;;;;;18.35;13.95;;;;;;;;;;4217660;34;20109;-66
2021/11/19 08:49:10;;;;;;;17.33;12.93;;;;;;;;;;4217838;34;20109;-67
2021/11/19 08:51:36;;;;;;;17.40;13.43;;;;;;;;;;4217517;34;20132;-67
2021/11/19 08:54:05;;;;;;;17.35;12.00;;;;;;;;;;4217558;34;20115;-66
2021/11/19 08:56:33;;;;;;;16.52;13.07;;;;;;;;;;4217622;34;20098;-67
2021/11/19 08:59:00;;;;;;;15.85;13.32;;;;;;;;;;4214921;34;20117;-67
2021/11/19 09:01:26;;;;;;;17.52;12.60;;;;;;;;;;4217538;34;20435;-66
2021/11/19 09:03:52;;;;;;;16.05;13.40;;;;;;;;;;4217313;34;20195;-67
2021/11/19 09:06:18;;;;;;;17.98;13.15;;;;;;;;;;4217439;34;20201;-68
2021/11/19 09:08:45;;;;;;;17.67;12.20;;;;;;;;;;4217439;34;20112;-69
2021/11/19 09:11:12;;;;;;;14.27;11.20;;;;;;;;;;4217358;34;20192;-68
2021/11/19 09:13:39;;;;;;;17.15;11.85;;;;;;;;;;4217604;34;20090;-68
2021/11/19 09:16:06;;;;;;;14.02;10.27;;;;;;;;;;4217509;34;20213;-67
2021/11/19 09:18:38;;;;;;;16.73;12.00;;;;;;;;;;4219334;33;20094;-67
2021/11/19 09:21:26;;;;;;;12.80;9.10;;;;;;;;;;4219527;34;20121;-66
2021/11/19 09:24:06;;;;;;;13.18;10.40;;;;;;;;;;4219781;34;20135;-68
2021/11/19 09:26:40;;;;;;;19.60;12.60;;;;;;;;;;4219339;34;20109;-66
2021/11/19 09:29:09;;;;;;;15.60;12.00;;;;;;;;;;4219567;34;20137;-67
2021/11/19 09:31:36;;;;;;;21.98;15.85;;;;;;;;;;4195170;34;20132;-66
2021/11/19 09:34:02;;;;;;;16.10;12.40;;;;;;;;;;4219680;34;20124;-67
2021/11/19 09:36:28;;;;;;;18.23;13.48;;;;;;;;;;4219625;34;20133;-67
2021/11/19 09:38:54;;;;;;;15.20;12.63;;;;;;;;;;4219732;34;20122;-68
2021/11/19 09:41:25;;;;;;;17.00;12.93;;;;;;;;;;4219389;34;20209;-66
2021/11/19 09:44:03;;;;;;;16.87;12.20;;;;;;;;;;4219618;34;20109;-66
2021/11/19 09:47:00;;;;;;;15.48;12.20;;;;;;;;;;4202531;34;20529;-68
2021/11/19 09:49:44;;;;;;;;;;;;;;;;;;4217705;33;20173;-67
2021/11/19 09:53:07;;;;;;;15.45;11.82;;;;;;;;;;4196588;34;20008;-67
2021/11/19 09:56:01;;;;;;;16.10;13.00;;;;;;;;;;4186047;34;20212;-67
2021/11/19 09:58:35;;;;;;;15.20;12.70;;;;;;;;;;4158196;34;20118;-68
2021/11/19 10:01:38;;;;;;;17.08;13.68;;;;;;;;;;4211022;34;20105;-68
2021/11/19 10:04:19;;;;;;;21.12;14.50;;;;;;;;;;4218731;33;20090;-70
2021/11/19 10:06:57;;;;;;;18.10;14.48;;;;;;;;;;4218802;34;20129;-68
2021/11/19 10:09:42;;;;;;;15.98;13.25;;;;;;;;;;4205915;34;20189;-66
2021/11/19 10:12:15;;;;;;;17.00;12.93;;;;;;;;;;4207510;34;20094;-66
2021/11/19 10:14:51;;;;;;;18.10;14.13;;;;;;;;;;4194854;34;20129;-66
2021/11/19 10:17:19;;;;;;;;;;;;;;;;;;4206687;34;20122;-67
2021/11/19 10:20:10;;;;;;;18.17;12.43;;;;;;;;;;4218448;33;20088;-67
2021/11/19 10:22:44;;;;;;;18.30;13.10;;;;;;;;;;4204879;34;20133;-67
2021/11/19 10:25:30;;;;;;;18.58;12.55;;;;;;;;;;4197167;34;20228;-67
2021/11/19 10:28:00;;;;;;;15.52;12.73;;;;;;;;;;4218263;34;20113;-67
2021/11/19 10:30:40;;;;;;;17.35;13.00;;;;;;;;;;4205236;34;20216;-67
2021/11/19 10:33:21;;;;;;;15.90;11.82;;;;;;;;;;4206019;33;20129;-65
2021/11/19 10:36:00;;;;;;;19.45;13.00;;;;;;;;;;4216732;34;20141;-69
2021/11/19 10:38:47;;;;;;;15.88;11.57;;;;;;;;;;4205227;34;20735;-65
2021/11/19 10:41:39;;;;;;;17.40;11.07;;;;;;;;;;4214713;33;20494;-66
2021/11/19 10:44:31;;;;;;;15.73;10.07;;;;;;;;;;4198277;34;20109;-66
2021/11/19 10:47:27;;;;;;;14.93;11.18;;;;;;;;;;4207226;34;20225;-66
2021/11/19 10:50:14;;;;;;;11.05;8.77;;;;;;;;;;4200085;34;20536;-66
2021/11/19 10:52:58;;;;;;;12.02;9.52;;;;;;;;;;4217329;34;20144;-65
2021/11/19 10:55:43;;;;;;;12.13;9.05;;;;;;;;;;4205708;34;20189;-67
2021/11/19 10:58:30;;;;;;;13.70;9.27;;;;;;;;;;4218610;33;20201;-64
2021/11/19 11:01:02;;;;;;;12.50;8.70;;;;;;;;;;4204843;34;20109;-64
2021/11/19 11:03:32;;;;;;;9.70;8.15;;;;;;;;;;4218369;34;20533;-66
2021/11/19 11:06:05;;;;;;;17.67;9.73;;;;;;;;;;4205795;34;20188;-66
2021/11/19 11:08:36;;;;;;;11.23;9.13;;;;;;;;;;4218046;33;20183;-67
2021/11/19 11:11:22;;;;;;;12.70;8.93;;;;;;;;;;4205219;34;20124;-66
2021/11/19 11:14:00;;;;;;;;;;;;;;;;;;4189746;34;20214;-67
2021/11/19 11:16:29;;;;;;;12.05;8.50;;;;;;;;;;4203862;34;19984;-67
2021/11/19 11:19:01;;;;;;;13.20;8.63;;;;;;;;;;4218194;33;20472;-66
2021/11/19 11:21:34;;;;;;;13.62;8.45;;;;;;;;;;4218005;34;20646;-67
2021/11/19 11:24:22;;;;;;;13.57;8.98;;;;;;;;;;4218693;34;20956;-66
2021/11/19 11:26:53;;;;;;;18.42;9.20;;;;;;;;;;4217982;34;20112;-67
2021/11/19 11:29:36;;;;;;;10.13;8.80;;;;;;;;;;4205211;34;20077;-66
2021/11/19 11:32:32;;;;;;;11.45;8.55;;;;;;;;;;4218074;34;20221;-67
2021/11/19 11:35:04;;;;;;;;;;;;;;;;;;4218668;33;20170;-67
2021/11/19 11:37:58;;;;;;;9.82;7.80;;;;;;;;;;4204961;34;20109;-67
2021/11/19 11:41:07;;;;;;;13.20;8.20;;;;;;;;;;4204797;34;20085;-67
2021/11/19 11:43:34;;;;;;;12.50;8.65;;;;;;;;;;4191632;34;20109;-67
2021/11/19 11:46:26;;;;;;;12.95;9.10;;;;;;;;;;4204869;34;20156;-67
2021/11/19 11:49:10;;;;;;;12.07;8.65;;;;;;;;;;4206239;34;20118;-67
2021/11/19 11:51:48;;;;;;;10.73;8.40;;;;;;;;;;4217194;34;20133;-67
2021/11/19 11:54:23;;;;;;;16.15;8.95;;;;;;;;;;4215757;33;20682;-66
2021/11/19 11:57:09;;;;;;;11.80;7.90;;;;;;;;;;4198063;34;20086;-67
2021/11/19 11:59:48;;;;;;;12.10;8.25;;;;;;;;;;4218104;33;20217;-67
2021/11/19 12:02:49;;;;;;;10.77;8.48;;;;;;;;;;4205816;34;20197;-67
2021/11/19 12:05:32;;;;;;;11.63;8.98;;;;;;;;;;4204801;34;20097;-67
2021/11/19 12:08:35;;;;;;;13.85;10.35;;;;;;;;;;4217724;34;20500;-66
2021/11/19 12:11:18;;;;;;;13.38;10.70;;;;;;;;;;4218018;34;20492;-66
2021/11/19 12:13:53;;;;;;;11.95;9.23;;;;;;;;;;4204433;34;20113;-67
2021/11/19 12:16:50;;;;;;;13.70;9.80;;;;;;;;;;4204617;34;20200;-66
2021/11/19 12:19:42;;;;;;;12.43;9.45;;;;;;;;;;4205194;34;20135;-68
2021/11/19 12:22:33;;;;;;;14.90;9.98;;;;;;;;;;4217959;34;20211;-65
2021/11/19 12:25:31;;;;;;;14.40;10.73;;;;;;;;;;4207100;34;20088;-67
2021/11/19 12:28:21;;;;;;;14.30;9.40;;;;;;;;;;4206145;33;20194;-67
2021/11/19 12:31:06;;;;;;;12.05;7.40;;;;;;;;;;4205877;34;20201;-67
2021/11/19 12:33:36;;;;;;;11.52;8.02;;;;;;;;;;4216306;34;20825;-69
2021/11/19 12:36:08;;;;;;;10.60;7.72;;;;;;;;;;4216819;34;20477;-69
2021/11/19 12:38:36;;;;;;;8.90;7.37;;;;;;;;;;4204356;34;20144;-65
2021/11/19 12:41:11;;;;;;;11.75;7.50;;;;;;;;;;4193134;34;20558;-66
2021/11/19 12:43:50;;;;;;;12.15;7.20;;;;;;;;;;4205153;34;20578;-65
2021/11/19 12:46:50;;;;;;;10.90;6.78;;;;;;;;;;4217282;34;20529;-65
2021/11/19 12:49:38;;;;;;;12.55;8.93;;;;;;;;;;4207255;34;20562;-66
2021/11/19 12:52:09;;;;;;;11.00;8.90;;;;;;;;;;4217020;34;20208;-66
2021/11/19 12:55:06;;;;;;;10.02;8.10;;;;;;;;;;4194802;34;20136;-66
2021/11/19 12:57:32;;;;;;;10.68;8.07;;;;;;;;;;4210623;34;20117;-67
2021/11/19 13:00:04;;;;;;;11.70;7.37;;;;;;;;;;4219082;34;20144;-67
2021/11/19 13:02:37;;;;;;;10.65;8.15;;;;;;;;;;4218962;34;20128;-67
2021/11/19 13:05:14;;;;;;;10.93;8.20;;;;;;;;;;4219614;33;20545;-71
2021/11/19 13:07:43;;;;;;;19.70;11.38;;;;;;;;;;4219996;34;20148;-66
2021/11/19 13:10:15;;;;;;;14.95;11.85;;;;;;;;;;4219030;34;20131;-66
2021/11/19 13:13:03;;;;;;;11.73;8.75;;;;;;;;;;4219064;34;20553;-67
2021/11/19 13:15:43;;;;;;;14.40;8.57;;;;;;;;;;4218993;34;20537;-67
2021/11/19 13:18:16;;;;;;;13.82;11.63;;;;;;;;;;4207616;33;20149;-68
2021/11/19 13:20:46;;;;;;;14.15;10.85;;;;;;;;;;4219255;34;20136;-74
2021/11/19 13:23:40;;;;;;;14.10;9.48;;;;;;;;;;4219255;34;20109;-74
2021/11/19 13:26:12;;;;;;;17.50;11.00;;;;;;;;;;4206645;34;20211;-67
2021/11/19 13:28:57;;;;;;;18.37;10.27;;;;;;;;;;4219451;34;20105;-69
2021/11/19 13:31:26;;;;;;;18.17;13.98;;;;;;;;;;4219513;34;20116;-70
2021/11/19 13:34:04;;;;;;;24.42;14.77;;;;;;;;;;4219481;34;20121;-68
2021/11/19 13:36:38;;;;;;;15.43;11.88;;;;;;;;;;4219497;34;20116;-64
2021/11/19 13:39:23;;;;;;;13.73;9.05;;;;;;;;;;4219621;34;20106;-64
2021/11/19 13:42:08;;;;;;;14.63;8.45;;;;;;;;;;4207577;34;20120;-65
2021/11/19 13:44:50;;;;;;;9.75;7.12;;;;;;;;;;4219563;34;20097;-64
2021/11/19 13:47:39;;;;;;;8.65;7.10;;;;;;;;;;4219482;34;20196;-65
2021/11/19 13:50:25;;;;;;;13.07;8.27;;;;;;;;;;4219525;34;20521;-64
2021/11/19 13:53:03;;;;;;;10.90;8.60;;;;;;;;;;4219335;34;20505;-64
2021/11/19 13:55:35;;;;;;;11.52;8.38;;;;;;;;;;4219519;34;20184;-64
2021/11/19 13:58:31;;;;;;;8.65;7.72;;;;;;;;;;4206828;34;20115;-65
2021/11/19 14:01:13;;;;;;;13.75;6.93;;;;;;;;;;4208465;34;20279;-65
2021/11/19 14:03:39;;;;;;;10.23;7.30;;;;;;;;;;4219076;34;20094;-65
2021/11/19 14:06:13;;;;;;;14.25;10.48;;;;;;;;;;4219260;34;20201;-65
2021/11/19 14:08:40;;;;;;;19.02;12.43;;;;;;;;;;4219400;34;20109;-65
2021/11/19 14:11:17;;;;;;;19.37;13.60;;;;;;;;;;4215258;34;20228;-66
2021/11/19 14:13:44;;;;;;;15.13;10.95;;;;;;;;;;4219280;34;20112;-65
2021/11/19 14:16:20;;;;;;;11.93;10.63;;;;;;;;;;4219254;34;20555;-64
2021/11/19 14:19:02;;;;;;;13.10;9.55;;;;;;;;;;4219111;34;20185;-64
2021/11/19 14:21:58;;;;;;;16.00;10.23;;;;;;;;;;4219585;34;20086;-63
2021/11/19 14:24:36;;;;;;;12.05;8.57;;;;;;;;;;4199267;34;20116;-63
2021/11/19 14:27:19;;;;;;;12.70;9.02;;;;;;;;;;4206170;34;20164;-64
2021/11/19 14:29:50;;;;;;;15.15;11.12;;;;;;;;;;4219154;34;20562;-64
2021/11/19 14:32:41;;;;;;;28.38;21.12;;;;;;;;;;4219082;34;20493;-64
2021/11/19 14:35:40;;;;;;;16.90;10.98;;;;;;;;;;4200047;34;20101;-64
2021/11/19 14:38:14;;;;;;;13.10;9.45;;;;;;;;;;4218943;34;20109;-64
2021/11/19 14:40:58;;;;;;;10.25;7.55;;;;;;;;;;4195707;34;20160;-64
2021/11/19 14:43:24;;;;;;;13.90;9.35;;;;;;;;;;4205215;34;20588;-63
2021/11/19 14:45:53;;;;;;;13.93;9.70;;;;;;;;;;4181058;34;20162;-63
2021/11/19 14:48:23;;;;;;;19.80;12.68;;;;;;;;;;4192148;34;20548;-63
2021/11/19 14:51:05;;;;;;;10.95;8.05;;;;;;;;;;4205200;34;20124;-63
2021/11/19 14:53:49;;;;;;;14.38;8.05;;;;;;;;;;4205022;34;20138;-63
2021/11/19 14:56:25;;;;;;;17.42;13.43;;;;;;;;;;4205084;34;20133;-63
2021/11/19 14:59:14;;;;;;;11.02;9.55;;;;;;;;;;4181023;34;20109;-64
2021/11/19 15:02:03;;;;;;;10.77;8.52;;;;;;;;;;4192335;34;20128;-64
2021/11/19 15:04:34;;;;;;;13.77;9.13;;;;;;;;;;4205192;34;20102;-66
2021/11/19 15:07:13;;;;;;;15.48;10.07;;;;;;;;;;4205005;34;20136;-65
2021/11/19 15:10:11;;;;;;;11.63;9.23;;;;;;;;;;4216764;34;20101;-68
2021/11/19 15:12:37;;;;;;;11.77;9.70;;;;;;;;;;4218835;34;20098;-68
2021/11/19 15:15:29;;;;;;;10.80;9.70;;;;;;;;;;4218092;34;20098;-68
2021/11/19 15:18:24;;;;;;;11.63;9.15;;;;;;;;;;4218753;34;20192;-68